OIZC

Details ICAO OIZC (ZBR)
Name CHAH BAHAR
Region Iran
Timezone Asia/Tehran (UTC+4.5)
Plans Departing 13
Arriving 15
Stats Elevation 43 ft / 13 m (AMSL)
Location 25.443349° 60.382115°
Runways 2
Magnetic Variation 1.589° E
Sunrise 2017-05-25 01:10:51 UTC / 2017-05-25 05:40:51 Local
Sunset 2017-05-25 14:42:52 UTC / 2017-05-25 19:12:52 Local
Advertisement - Login to hide

Runways

ID Width Length Bearing (true) Bearing (mag) Surface Threshold Offset Overrun Length
09L 150 ft / 46 m 12,496 ft / 3,809 m 90.91° 89.32° Asphalt 0 ft / 0 m 1,181 ft / 360 m
09R 150 ft / 46 m 9,829 ft / 2,996 m 90.93° 89.34° Asphalt 0 ft / 0 m 1,181 ft / 360 m
27L 150 ft / 46 m 9,829 ft / 2,996 m 270.94° 269.35° Asphalt 0 ft / 0 m 1,181 ft / 360 m
27R 150 ft / 46 m 12,496 ft / 3,809 m 270.93° 269.34° Asphalt 0 ft / 0 m 1,181 ft / 360 m

Map

Weather


0- 5 10 15 20 25 30 35+ Temperature / ° C

Clouds and Precipitation
Forecast for 2017-05-25 06:00 UTC. Updated an hour ago

Ground ~20,000 ft ~40,000 ft Winds

METAR

OIZC 250400Z 23006KT CAVOK 33/23 Q1005 A2969

TAF

TAF OIZC 242300Z 2500/2606 24005MPS 4000 HZ FEW030 TEMPO 2422/2504 34005MPS 2000 HZ/BR TEMPO 2507/2516 24010MPS 3000 SA TEMPO 2522/2604 34005MPS 3000 HZ/BR

Frequencies

Tower 121.70 MHz TWR
Approach 134.10 MHz APP
Tower 125.20 MHz TWR
Warning: Do not use this data for real-world aviation or navigation. No guarantee of current accuracy is given.